sensor_id;sensor_type;location;lat;lon;timestamp;P1;durP1;ratioP1;P2;durP2;ratioP2
54875;SDS011;40764;48.472;8.166;2023-05-07T00:00:22;9.95;;;3.70;;
54875;SDS011;40764;48.472;8.166;2023-05-07T00:06:22;8.00;;;3.90;;
54875;SDS011;40764;48.472;8.166;2023-05-07T00:12:23;7.57;;;3.47;;
54875;SDS011;40764;48.472;8.166;2023-05-07T00:18:23;7.75;;;3.53;;
54875;SDS011;40764;48.472;8.166;2023-05-07T00:24:24;9.60;;;3.22;;
54875;SDS011;40764;48.472;8.166;2023-05-07T00:30:24;18.87;;;4.23;;
54875;SDS011;40764;48.472;8.166;2023-05-07T00:36:24;10.82;;;3.65;;
54875;SDS011;40764;48.472;8.166;2023-05-07T00:42:26;9.50;;;3.30;;
54875;SDS011;40764;48.472;8.166;2023-05-07T00:48:27;6.97;;;3.95;;
54875;SDS011;40764;48.472;8.166;2023-05-07T00:54:28;8.00;;;3.37;;
54875;SDS011;40764;48.472;8.166;2023-05-07T01:00:28;9.35;;;3.90;;
54875;SDS011;40764;48.472;8.166;2023-05-07T01:06:28;7.60;;;3.40;;
54875;SDS011;40764;48.472;8.166;2023-05-07T01:12:30;10.52;;;3.45;;
54875;SDS011;40764;48.472;8.166;2023-05-07T01:18:31;3.87;;;2.90;;
54875;SDS011;40764;48.472;8.166;2023-05-07T01:24:31;7.37;;;3.60;;
54875;SDS011;40764;48.472;8.166;2023-05-07T01:30:33;6.47;;;3.97;;
54875;SDS011;40764;48.472;8.166;2023-05-07T01:36:35;5.03;;;3.25;;
54875;SDS011;40764;48.472;8.166;2023-05-07T01:42:38;5.47;;;3.13;;
54875;SDS011;40764;48.472;8.166;2023-05-07T01:48:39;3.97;;;2.70;;
54875;SDS011;40764;48.472;8.166;2023-05-07T01:54:41;7.55;;;3.13;;
54875;SDS011;40764;48.472;8.166;2023-05-07T02:00:41;5.10;;;2.93;;
54875;SDS011;40764;48.472;8.166;2023-05-07T02:06:41;14.30;;;3.20;;
54875;SDS011;40764;48.472;8.166;2023-05-07T02:12:42;18.30;;;3.20;;
54875;SDS011;40764;48.472;8.166;2023-05-07T02:18:42;5.37;;;2.77;;
54875;SDS011;40764;48.472;8.166;2023-05-07T02:24:43;4.57;;;3.00;;
54875;SDS011;40764;48.472;8.166;2023-05-07T02:30:43;8.03;;;2.70;;
54875;SDS011;40764;48.472;8.166;2023-05-07T02:36:43;9.87;;;2.83;;
54875;SDS011;40764;48.472;8.166;2023-05-07T02:42:44;3.65;;;2.53;;
54875;SDS011;40764;48.472;8.166;2023-05-07T02:48:44;4.35;;;2.92;;
54875;SDS011;40764;48.472;8.166;2023-05-07T02:54:44;6.87;;;2.83;;
54875;SDS011;40764;48.472;8.166;2023-05-07T03:00:45;6.27;;;3.53;;
54875;SDS011;40764;48.472;8.166;2023-05-07T03:06:46;5.87;;;3.47;;
54875;SDS011;40764;48.472;8.166;2023-05-07T03:12:46;6.87;;;2.97;;
54875;SDS011;40764;48.472;8.166;2023-05-07T03:18:46;4.13;;;2.90;;
54875;SDS011;40764;48.472;8.166;2023-05-07T03:24:47;5.00;;;2.88;;
54875;SDS011;40764;48.472;8.166;2023-05-07T03:30:47;5.97;;;3.28;;
54875;SDS011;40764;48.472;8.166;2023-05-07T03:36:48;6.47;;;4.05;;
54875;SDS011;40764;48.472;8.166;2023-05-07T03:42:48;7.00;;;3.63;;
54875;SDS011;40764;48.472;8.166;2023-05-07T03:48:49;5.10;;;3.23;;
54875;SDS011;40764;48.472;8.166;2023-05-07T03:54:49;6.63;;;3.35;;
54875;SDS011;40764;48.472;8.166;2023-05-07T04:00:50;5.95;;;3.33;;
54875;SDS011;40764;48.472;8.166;2023-05-07T04:06:50;9.73;;;3.40;;
54875;SDS011;40764;48.472;8.166;2023-05-07T04:12:51;8.77;;;3.37;;
54875;SDS011;40764;48.472;8.166;2023-05-07T04:18:51;4.25;;;3.05;;
54875;SDS011;40764;48.472;8.166;2023-05-07T04:24:52;6.97;;;3.15;;
54875;SDS011;40764;48.472;8.166;2023-05-07T04:30:52;5.30;;;3.45;;
54875;SDS011;40764;48.472;8.166;2023-05-07T04:36:52;9.68;;;3.10;;
54875;SDS011;40764;48.472;8.166;2023-05-07T04:42:53;4.65;;;3.65;;
54875;SDS011;40764;48.472;8.166;2023-05-07T04:48:53;12.23;;;3.67;;
54875;SDS011;40764;48.472;8.166;2023-05-07T04:54:54;20.90;;;6.15;;
54875;SDS011;40764;48.472;8.166;2023-05-07T05:00:54;19.90;;;6.80;;
54875;SDS011;40764;48.472;8.166;2023-05-07T05:12:56;13.93;;;5.45;;
54875;SDS011;40764;48.472;8.166;2023-05-07T05:18:56;6.95;;;4.30;;
54875;SDS011;40764;48.472;8.166;2023-05-07T05:24:57;18.27;;;6.88;;
54875;SDS011;40764;48.472;8.166;2023-05-07T05:30:57;13.30;;;5.90;;
54875;SDS011;40764;48.472;8.166;2023-05-07T05:36:58;10.23;;;4.75;;
54875;SDS011;40764;48.472;8.166;2023-05-07T05:42:59;6.63;;;3.87;;
54875;SDS011;40764;48.472;8.166;2023-05-07T05:48:59;9.00;;;4.00;;
54875;SDS011;40764;48.472;8.166;2023-05-07T05:55:00;8.57;;;4.27;;
54875;SDS011;40764;48.472;8.166;2023-05-07T06:01:00;5.95;;;4.40;;
54875;SDS011;40764;48.472;8.166;2023-05-07T06:07:02;9.30;;;3.78;;
54875;SDS011;40764;48.472;8.166;2023-05-07T06:13:02;8.52;;;4.03;;
54875;SDS011;40764;48.472;8.166;2023-05-07T06:19:03;6.75;;;3.22;;
54875;SDS011;40764;48.472;8.166;2023-05-07T06:25:03;9.13;;;3.53;;
54875;SDS011;40764;48.472;8.166;2023-05-07T06:31:14;8.07;;;4.53;;
54875;SDS011;40764;48.472;8.166;2023-05-07T06:37:15;9.07;;;3.90;;
54875;SDS011;40764;48.472;8.166;2023-05-07T06:43:16;5.88;;;4.07;;
54875;SDS011;40764;48.472;8.166;2023-05-07T06:49:16;8.40;;;4.13;;
54875;SDS011;40764;48.472;8.166;2023-05-07T06:55:16;8.13;;;4.10;;
54875;SDS011;40764;48.472;8.166;2023-05-07T07:01:17;8.37;;;4.07;;
54875;SDS011;40764;48.472;8.166;2023-05-07T07:07:17;5.68;;;3.58;;
54875;SDS011;40764;48.472;8.166;2023-05-07T07:13:17;7.47;;;3.83;;
54875;SDS011;40764;48.472;8.166;2023-05-07T07:19:18;5.83;;;3.13;;
54875;SDS011;40764;48.472;8.166;2023-05-07T07:25:20;6.10;;;3.50;;
54875;SDS011;40764;48.472;8.166;2023-05-07T07:31:20;5.13;;;3.58;;
54875;SDS011;40764;48.472;8.166;2023-05-07T07:37:20;5.73;;;3.50;;
54875;SDS011;40764;48.472;8.166;2023-05-07T07:43:21;8.43;;;3.37;;
54875;SDS011;40764;48.472;8.166;2023-05-07T07:49:21;6.57;;;3.33;;
54875;SDS011;40764;48.472;8.166;2023-05-07T07:55:22;3.83;;;2.85;;
54875;SDS011;40764;48.472;8.166;2023-05-07T08:01:23;5.38;;;2.85;;
54875;SDS011;40764;48.472;8.166;2023-05-07T08:07:23;5.55;;;3.17;;
54875;SDS011;40764;48.472;8.166;2023-05-07T08:13:23;4.70;;;2.47;;
54875;SDS011;40764;48.472;8.166;2023-05-07T08:19:24;3.47;;;2.53;;
54875;SDS011;40764;48.472;8.166;2023-05-07T08:25:24;2.73;;;2.37;;
54875;SDS011;40764;48.472;8.166;2023-05-07T08:31:24;3.97;;;2.92;;
54875;SDS011;40764;48.472;8.166;2023-05-07T08:37:25;4.37;;;2.70;;
54875;SDS011;40764;48.472;8.166;2023-05-07T08:43:26;4.40;;;2.40;;
54875;SDS011;40764;48.472;8.166;2023-05-07T08:49:28;3.53;;;2.50;;
54875;SDS011;40764;48.472;8.166;2023-05-07T08:55:28;7.50;;;3.00;;
54875;SDS011;40764;48.472;8.166;2023-05-07T09:01:30;3.92;;;2.00;;
54875;SDS011;40764;48.472;8.166;2023-05-07T09:07:30;7.33;;;3.60;;
54875;SDS011;40764;48.472;8.166;2023-05-07T09:13:31;3.80;;;2.20;;
54875;SDS011;40764;48.472;8.166;2023-05-07T09:19:31;5.90;;;2.10;;
54875;SDS011;40764;48.472;8.166;2023-05-07T09:25:32;7.78;;;2.90;;
54875;SDS011;40764;48.472;8.166;2023-05-07T09:31:36;7.25;;;2.50;;
54875;SDS011;40764;48.472;8.166;2023-05-07T09:37:40;5.07;;;2.95;;
54875;SDS011;40764;48.472;8.166;2023-05-07T09:43:41;3.85;;;2.22;;
54875;SDS011;40764;48.472;8.166;2023-05-07T09:49:41;3.58;;;2.28;;
54875;SDS011;40764;48.472;8.166;2023-05-07T09:55:47;5.53;;;2.88;;
54875;SDS011;40764;48.472;8.166;2023-05-07T10:01:48;3.23;;;2.30;;
54875;SDS011;40764;48.472;8.166;2023-05-07T10:07:49;4.93;;;2.60;;
54875;SDS011;40764;48.472;8.166;2023-05-07T10:13:50;14.40;;;3.42;;
54875;SDS011;40764;48.472;8.166;2023-05-07T10:25:53;4.97;;;3.40;;
54875;SDS011;40764;48.472;8.166;2023-05-07T10:31:55;6.68;;;4.05;;
54875;SDS011;40764;48.472;8.166;2023-05-07T10:38:07;8.63;;;3.15;;
54875;SDS011;40764;48.472;8.166;2023-05-07T10:44:08;6.55;;;3.65;;
54875;SDS011;40764;48.472;8.166;2023-05-07T11:02:18;3.58;;;2.63;;
54875;SDS011;40764;48.472;8.166;2023-05-07T11:08:18;5.40;;;2.70;;
54875;SDS011;40764;48.472;8.166;2023-05-07T11:20:58;3.15;;;2.20;;
54875;SDS011;40764;48.472;8.166;2023-05-07T11:33:00;3.53;;;2.03;;
54875;SDS011;40764;48.472;8.166;2023-05-07T11:39:00;3.77;;;1.57;;
54875;SDS011;40764;48.472;8.166;2023-05-07T11:45:01;3.63;;;1.80;;
54875;SDS011;40764;48.472;8.166;2023-05-07T11:51:02;1.70;;;1.43;;
54875;SDS011;40764;48.472;8.166;2023-05-07T11:57:04;5.15;;;1.45;;
54875;SDS011;40764;48.472;8.166;2023-05-07T12:03:05;2.83;;;1.77;;
54875;SDS011;40764;48.472;8.166;2023-05-07T12:09:06;2.67;;;1.87;;
54875;SDS011;40764;48.472;8.166;2023-05-07T12:15:13;3.90;;;2.55;;
54875;SDS011;40764;48.472;8.166;2023-05-07T12:21:15;7.15;;;3.15;;
54875;SDS011;40764;48.472;8.166;2023-05-07T12:33:18;7.05;;;3.47;;
54875;SDS011;40764;48.472;8.166;2023-05-07T12:39:23;6.28;;;3.05;;
54875;SDS011;40764;48.472;8.166;2023-05-07T12:45:23;10.70;;;3.35;;
54875;SDS011;40764;48.472;8.166;2023-05-07T12:51:27;7.03;;;3.85;;
54875;SDS011;40764;48.472;8.166;2023-05-07T12:57:28;9.95;;;4.43;;
54875;SDS011;40764;48.472;8.166;2023-05-07T13:03:29;11.93;;;5.43;;
54875;SDS011;40764;48.472;8.166;2023-05-07T13:09:31;16.88;;;6.15;;
54875;SDS011;40764;48.472;8.166;2023-05-07T13:15:32;11.00;;;5.60;;
54875;SDS011;40764;48.472;8.166;2023-05-07T13:21:32;13.10;;;5.83;;
54875;SDS011;40764;48.472;8.166;2023-05-07T13:27:32;11.90;;;5.97;;
54875;SDS011;40764;48.472;8.166;2023-05-07T13:33:36;20.48;;;7.25;;
54875;SDS011;40764;48.472;8.166;2023-05-07T13:39:37;24.53;;;8.50;;
54875;SDS011;40764;48.472;8.166;2023-05-07T13:45:37;18.77;;;7.40;;
54875;SDS011;40764;48.472;8.166;2023-05-07T13:51:37;23.07;;;7.87;;
54875;SDS011;40764;48.472;8.166;2023-05-07T13:57:38;16.03;;;7.93;;
54875;SDS011;40764;48.472;8.166;2023-05-07T14:03:38;25.73;;;10.80;;
54875;SDS011;40764;48.472;8.166;2023-05-07T14:09:39;15.57;;;8.60;;
54875;SDS011;40764;48.472;8.166;2023-05-07T14:15:40;11.87;;;6.27;;
54875;SDS011;40764;48.472;8.166;2023-05-07T14:21:42;9.68;;;4.90;;
54875;SDS011;40764;48.472;8.166;2023-05-07T14:27:42;9.63;;;4.20;;
54875;SDS011;40764;48.472;8.166;2023-05-07T14:33:42;9.25;;;3.25;;
54875;SDS011;40764;48.472;8.166;2023-05-07T14:39:43;5.37;;;3.23;;
54875;SDS011;40764;48.472;8.166;2023-05-07T14:45:43;5.93;;;3.63;;
54875;SDS011;40764;48.472;8.166;2023-05-07T14:51:44;5.85;;;3.22;;
54875;SDS011;40764;48.472;8.166;2023-05-07T14:57:45;8.02;;;4.60;;
54875;SDS011;40764;48.472;8.166;2023-05-07T15:03:45;9.13;;;3.30;;
54875;SDS011;40764;48.472;8.166;2023-05-07T15:09:46;4.70;;;2.80;;
54875;SDS011;40764;48.472;8.166;2023-05-07T15:15:47;5.30;;;3.20;;
54875;SDS011;40764;48.472;8.166;2023-05-07T15:21:47;4.97;;;3.43;;
54875;SDS011;40764;48.472;8.166;2023-05-07T15:27:48;10.88;;;7.00;;
54875;SDS011;40764;48.472;8.166;2023-05-07T15:33:48;7.47;;;3.93;;
54875;SDS011;40764;48.472;8.166;2023-05-07T15:39:49;15.23;;;3.83;;
54875;SDS011;40764;48.472;8.166;2023-05-07T15:45:49;7.10;;;3.77;;
54875;SDS011;40764;48.472;8.166;2023-05-07T15:51:49;8.13;;;3.83;;
54875;SDS011;40764;48.472;8.166;2023-05-07T15:57:51;4.88;;;3.47;;
54875;SDS011;40764;48.472;8.166;2023-05-07T16:03:51;6.47;;;3.43;;
54875;SDS011;40764;48.472;8.166;2023-05-07T16:09:51;10.07;;;4.15;;
54875;SDS011;40764;48.472;8.166;2023-05-07T16:15:55;11.20;;;4.82;;
54875;SDS011;40764;48.472;8.166;2023-05-07T16:21:57;5.70;;;4.07;;
54875;SDS011;40764;48.472;8.166;2023-05-07T16:27:58;14.13;;;4.00;;
54875;SDS011;40764;48.472;8.166;2023-05-07T16:33:58;6.60;;;3.78;;
54875;SDS011;40764;48.472;8.166;2023-05-07T16:39:59;8.18;;;2.72;;
54875;SDS011;40764;48.472;8.166;2023-05-07T16:46:00;12.65;;;2.70;;
54875;SDS011;40764;48.472;8.166;2023-05-07T16:52:01;4.03;;;2.47;;
54875;SDS011;40764;48.472;8.166;2023-05-07T16:58:01;7.67;;;2.40;;
54875;SDS011;40764;48.472;8.166;2023-05-07T17:04:02;7.10;;;3.07;;
54875;SDS011;40764;48.472;8.166;2023-05-07T17:10:02;5.33;;;2.43;;
54875;SDS011;40764;48.472;8.166;2023-05-07T17:16:03;4.00;;;2.40;;
54875;SDS011;40764;48.472;8.166;2023-05-07T17:22:04;7.93;;;3.57;;
54875;SDS011;40764;48.472;8.166;2023-05-07T17:28:04;3.33;;;2.50;;
54875;SDS011;40764;48.472;8.166;2023-05-07T17:34:04;4.57;;;2.90;;
54875;SDS011;40764;48.472;8.166;2023-05-07T17:40:05;4.80;;;3.10;;
54875;SDS011;40764;48.472;8.166;2023-05-07T17:46:07;5.43;;;3.58;;
54875;SDS011;40764;48.472;8.166;2023-05-07T17:58:09;5.38;;;3.50;;
54875;SDS011;40764;48.472;8.166;2023-05-07T18:10:10;6.10;;;3.42;;
54875;SDS011;40764;48.472;8.166;2023-05-07T18:16:11;5.83;;;3.30;;
54875;SDS011;40764;48.472;8.166;2023-05-07T18:22:11;5.30;;;3.23;;
54875;SDS011;40764;48.472;8.166;2023-05-07T18:28:12;4.30;;;3.63;;
54875;SDS011;40764;48.472;8.166;2023-05-07T18:34:12;6.53;;;4.20;;
54875;SDS011;40764;48.472;8.166;2023-05-07T18:40:13;6.20;;;3.50;;
54875;SDS011;40764;48.472;8.166;2023-05-07T18:46:13;5.53;;;3.83;;
54875;SDS011;40764;48.472;8.166;2023-05-07T18:52:14;6.77;;;4.00;;
54875;SDS011;40764;48.472;8.166;2023-05-07T18:58:17;9.75;;;4.03;;
54875;SDS011;40764;48.472;8.166;2023-05-07T19:04:18;5.82;;;3.55;;
54875;SDS011;40764;48.472;8.166;2023-05-07T19:10:19;6.60;;;3.77;;
54875;SDS011;40764;48.472;8.166;2023-05-07T19:16:19;11.77;;;5.33;;
54875;SDS011;40764;48.472;8.166;2023-05-07T19:22:20;6.77;;;4.97;;
54875;SDS011;40764;48.472;8.166;2023-05-07T19:28:20;7.23;;;4.17;;
54875;SDS011;40764;48.472;8.166;2023-05-07T19:34:21;7.97;;;4.93;;
54875;SDS011;40764;48.472;8.166;2023-05-07T19:40:21;8.77;;;5.67;;
54875;SDS011;40764;48.472;8.166;2023-05-07T19:46:21;15.40;;;8.93;;
54875;SDS011;40764;48.472;8.166;2023-05-07T19:52:22;18.77;;;8.17;;
54875;SDS011;40764;48.472;8.166;2023-05-07T19:58:22;9.27;;;5.53;;
54875;SDS011;40764;48.472;8.166;2023-05-07T20:04:22;12.68;;;5.65;;
54875;SDS011;40764;48.472;8.166;2023-05-07T20:10:28;9.50;;;5.78;;
54875;SDS011;40764;48.472;8.166;2023-05-07T20:16:28;9.00;;;6.23;;
54875;SDS011;40764;48.472;8.166;2023-05-07T20:22:29;10.32;;;5.78;;
54875;SDS011;40764;48.472;8.166;2023-05-07T20:28:30;9.20;;;5.00;;
54875;SDS011;40764;48.472;8.166;2023-05-07T20:34:31;6.50;;;3.83;;
54875;SDS011;40764;48.472;8.166;2023-05-07T20:40:31;6.15;;;4.03;;
54875;SDS011;40764;48.472;8.166;2023-05-07T20:46:33;5.45;;;3.85;;
54875;SDS011;40764;48.472;8.166;2023-05-07T20:52:35;8.95;;;4.70;;
54875;SDS011;40764;48.472;8.166;2023-05-07T20:58:35;8.03;;;4.67;;
54875;SDS011;40764;48.472;8.166;2023-05-07T21:04:36;9.13;;;4.40;;
54875;SDS011;40764;48.472;8.166;2023-05-07T21:10:37;5.63;;;4.53;;
54875;SDS011;40764;48.472;8.166;2023-05-07T21:16:37;7.30;;;4.63;;
54875;SDS011;40764;48.472;8.166;2023-05-07T21:22:39;9.95;;;4.53;;
54875;SDS011;40764;48.472;8.166;2023-05-07T21:28:39;8.07;;;5.47;;
54875;SDS011;40764;48.472;8.166;2023-05-07T21:34:39;7.67;;;5.23;;
54875;SDS011;40764;48.472;8.166;2023-05-07T21:40:40;16.35;;;3.97;;
54875;SDS011;40764;48.472;8.166;2023-05-07T21:46:40;5.55;;;3.88;;
54875;SDS011;40764;48.472;8.166;2023-05-07T21:52:40;16.23;;;7.28;;
54875;SDS011;40764;48.472;8.166;2023-05-07T21:58:41;12.13;;;6.20;;
54875;SDS011;40764;48.472;8.166;2023-05-07T22:04:41;9.20;;;6.60;;
54875;SDS011;40764;48.472;8.166;2023-05-07T22:10:42;10.77;;;5.53;;
54875;SDS011;40764;48.472;8.166;2023-05-07T22:16:42;7.80;;;4.13;;
54875;SDS011;40764;48.472;8.166;2023-05-07T22:28:46;6.55;;;3.90;;
54875;SDS011;40764;48.472;8.166;2023-05-07T22:34:46;13.80;;;4.30;;
54875;SDS011;40764;48.472;8.166;2023-05-07T22:40:46;10.77;;;3.85;;
54875;SDS011;40764;48.472;8.166;2023-05-07T22:46:47;13.23;;;5.72;;
54875;SDS011;40764;48.472;8.166;2023-05-07T22:52:48;12.27;;;5.70;;
54875;SDS011;40764;48.472;8.166;2023-05-07T22:58:49;14.50;;;6.00;;
54875;SDS011;40764;48.472;8.166;2023-05-07T23:04:49;11.80;;;6.73;;
54875;SDS011;40764;48.472;8.166;2023-05-07T23:10:50;12.07;;;5.50;;
54875;SDS011;40764;48.472;8.166;2023-05-07T23:16:50;8.67;;;4.37;;
54875;SDS011;40764;48.472;8.166;2023-05-07T23:22:50;8.27;;;3.90;;
54875;SDS011;40764;48.472;8.166;2023-05-07T23:28:51;8.57;;;4.00;;
54875;SDS011;40764;48.472;8.166;2023-05-07T23:34:51;10.25;;;4.10;;
54875;SDS011;40764;48.472;8.166;2023-05-07T23:40:54;10.48;;;3.80;;
54875;SDS011;40764;48.472;8.166;2023-05-07T23:46:55;16.23;;;4.70;;
54875;SDS011;40764;48.472;8.166;2023-05-07T23:52:55;13.52;;;4.55;;
54875;SDS011;40764;48.472;8.166;2023-05-07T23:58:55;10.82;;;4.60;;
